createdAt,value
2022-08-11T00:02:35.249Z,18.30
2022-08-11T00:05:11.304Z,18.20
2022-08-11T00:07:47.435Z,18.20
2022-08-11T00:10:19.189Z,18.20
2022-08-11T00:12:53.185Z,18.10
2022-08-11T00:15:25.311Z,18.20
2022-08-11T00:17:59.847Z,18.20
2022-08-11T00:20:34.361Z,18.10
2022-08-11T00:23:05.459Z,18.00
2022-08-11T00:25:40.762Z,17.90
2022-08-11T00:28:29.878Z,17.80
2022-08-11T00:30:59.978Z,17.80
2022-08-11T00:33:44.352Z,17.90
2022-08-11T00:36:25.338Z,17.80
2022-08-11T00:39:04.854Z,17.80
2022-08-11T00:41:36.318Z,17.70
2022-08-11T00:44:34.318Z,17.70
2022-08-11T00:47:14.939Z,17.70
2022-08-11T00:49:54.288Z,17.60
2022-08-11T00:52:40.670Z,17.60
2022-08-11T00:56:06.217Z,17.60
2022-08-11T00:59:34.317Z,17.60
2022-08-11T01:02:12.326Z,17.50
2022-08-11T01:05:23.986Z,17.50
2022-08-11T01:08:32.177Z,17.50
2022-08-11T01:11:38.849Z,17.40
2022-08-11T01:14:53.786Z,17.40
2022-08-11T01:18:08.002Z,17.50
2022-08-11T01:21:11.071Z,17.40
2022-08-11T01:24:30.965Z,17.30
2022-08-11T01:27:30.281Z,17.20
2022-08-11T01:30:29.760Z,17.20
2022-08-11T01:33:28.000Z,17.20
2022-08-11T01:36:39.043Z,17.30
2022-08-11T01:39:33.888Z,17.20
2022-08-11T01:43:04.395Z,17.20
2022-08-11T01:45:38.334Z,17.30
2022-08-11T01:48:15.882Z,17.30
2022-08-11T01:51:16.765Z,17.30
2022-08-11T01:53:57.292Z,17.40
2022-08-11T01:56:41.309Z,17.40
2022-08-11T01:59:19.094Z,17.40
2022-08-11T02:01:59.082Z,17.40
2022-08-11T02:04:34.530Z,17.40
2022-08-11T02:07:15.621Z,17.40
2022-08-11T02:10:00.501Z,17.30
2022-08-11T02:12:52.315Z,17.20
2022-08-11T02:15:27.945Z,17.00
2022-08-11T02:18:13.321Z,16.90
2022-08-11T02:21:06.253Z,16.90
2022-08-11T02:24:05.015Z,16.90
2022-08-11T02:26:42.259Z,16.90
2022-08-11T02:29:24.188Z,16.70
2022-08-11T02:32:33.774Z,16.60
2022-08-11T02:35:11.316Z,16.60
2022-08-11T02:37:51.343Z,16.50
2022-08-11T02:40:28.419Z,16.40
2022-08-11T02:43:10.399Z,16.40
2022-08-11T02:45:55.554Z,16.40
2022-08-11T02:48:58.830Z,16.40
2022-08-11T02:51:36.316Z,16.30
2022-08-11T02:54:14.725Z,16.30
2022-08-11T02:56:52.345Z,16.30
2022-08-11T02:59:51.430Z,16.30
2022-08-11T03:02:41.167Z,16.30
2022-08-11T03:05:22.898Z,16.30
2022-08-11T03:08:14.833Z,16.30
2022-08-11T03:11:09.626Z,16.30
2022-08-11T03:14:01.195Z,16.30
2022-08-11T03:16:48.242Z,16.30
2022-08-11T03:19:31.393Z,16.20
2022-08-11T03:22:14.355Z,16.00
2022-08-11T03:24:54.952Z,16.00
2022-08-11T03:27:36.848Z,15.90
2022-08-11T03:30:14.516Z,15.90
2022-08-11T03:33:17.950Z,15.90
2022-08-11T03:35:55.648Z,15.80
2022-08-11T03:38:33.067Z,15.90
2022-08-11T03:42:04.072Z,15.90
2022-08-11T03:44:38.978Z,15.90
2022-08-11T03:47:22.188Z,16.10
2022-08-11T03:50:04.974Z,16.20
2022-08-11T03:52:47.735Z,16.30
2022-08-11T03:55:30.071Z,16.40
2022-08-11T03:58:27.179Z,16.50
2022-08-11T04:01:34.984Z,16.40
2022-08-11T04:04:50.709Z,16.50
2022-08-11T04:07:54.844Z,16.40
2022-08-11T04:10:46.203Z,16.30
2022-08-11T04:13:58.239Z,16.40
2022-08-11T04:16:45.137Z,16.40
2022-08-11T04:19:48.047Z,16.50
2022-08-11T04:22:48.127Z,16.50
2022-08-11T04:25:58.243Z,16.60
2022-08-11T04:28:54.037Z,16.60
2022-08-11T04:31:50.342Z,16.60
2022-08-11T04:34:43.025Z,16.60
2022-08-11T04:37:34.830Z,16.50
2022-08-11T04:40:50.276Z,16.50
2022-08-11T04:44:05.731Z,16.40
2022-08-11T04:46:50.571Z,16.20
2022-08-11T04:50:13.115Z,16.30
2022-08-11T04:53:34.853Z,16.40
2022-08-11T04:56:30.249Z,16.60
2022-08-11T04:59:58.729Z,16.80
2022-08-11T05:03:17.080Z,17.00
2022-08-11T05:06:22.239Z,17.20
2022-08-11T05:09:38.757Z,17.50
2022-08-11T05:12:38.125Z,17.70
2022-08-11T05:15:30.075Z,17.90
2022-08-11T05:18:20.181Z,18.10
2022-08-11T05:21:09.229Z,18.20
2022-08-11T05:24:00.053Z,18.40
2022-08-11T05:26:49.980Z,18.50
2022-08-11T05:29:59.567Z,18.60
2022-08-11T05:32:55.805Z,18.80
2022-08-11T05:36:00.031Z,18.90
2022-08-11T05:38:43.409Z,19.10
2022-08-11T05:41:31.197Z,19.20
2022-08-11T05:44:22.057Z,19.30
2022-08-11T05:47:10.247Z,19.50
2022-08-11T05:49:56.635Z,19.60
2022-08-11T05:52:49.126Z,19.70
2022-08-11T05:55:58.404Z,19.80
2022-08-11T05:58:39.711Z,19.90
2022-08-11T06:01:10.910Z,20.00
2022-08-11T06:03:58.978Z,20.20
2022-08-11T06:06:30.563Z,20.30
2022-08-11T06:09:00.213Z,20.50
2022-08-11T06:11:44.117Z,20.60
2022-08-11T06:14:15.498Z,20.60
2022-08-11T06:16:48.008Z,20.70
2022-08-11T06:19:24.531Z,20.80
2022-08-11T06:21:56.771Z,21.00
2022-08-11T06:24:25.472Z,21.20
2022-08-11T06:27:11.927Z,21.30
2022-08-11T06:29:54.849Z,21.50
2022-08-11T06:32:31.633Z,21.60
2022-08-11T06:35:09.907Z,21.70
2022-08-11T06:37:48.550Z,21.80
2022-08-11T06:40:31.600Z,21.90
2022-08-11T06:43:08.028Z,22.20
2022-08-11T06:45:48.440Z,22.30
2022-08-11T06:48:18.765Z,22.40
2022-08-11T06:51:10.682Z,22.60
2022-08-11T06:53:57.589Z,22.80
2022-08-11T06:57:12.534Z,22.90
2022-08-11T07:00:01.163Z,22.80
2022-08-11T07:02:34.754Z,22.80
2022-08-11T07:05:08.684Z,22.70
2022-08-11T07:08:35.833Z,22.70
2022-08-11T07:11:42.691Z,22.70
2022-08-11T07:14:33.959Z,22.80
2022-08-11T07:17:07.516Z,23.10
2022-08-11T07:19:53.672Z,23.40
2022-08-11T07:22:45.121Z,23.60
2022-08-11T07:25:34.880Z,23.70
2022-08-11T07:28:23.129Z,23.90
2022-08-11T07:30:59.313Z,24.10
2022-08-11T07:34:08.572Z,24.30
2022-08-11T07:36:26.232Z,24.50
2022-08-11T07:38:58.491Z,24.90
2022-08-11T07:41:32.751Z,25.10
2022-08-11T07:44:09.319Z,25.20
2022-08-11T07:46:58.683Z,25.20
2022-08-11T07:49:47.863Z,25.20
2022-08-11T07:52:29.515Z,25.60
2022-08-11T07:55:00.583Z,26.00
2022-08-11T07:58:13.971Z,26.10
2022-08-11T08:00:56.460Z,26.20
2022-08-11T08:03:54.488Z,26.10
2022-08-11T08:06:41.456Z,26.40
2022-08-11T08:09:28.835Z,26.20
2022-08-11T08:12:16.047Z,26.20
2022-08-11T08:15:03.386Z,26.20
2022-08-11T08:18:09.476Z,26.50
2022-08-11T08:20:41.450Z,26.80
2022-08-11T08:23:11.875Z,27.10
2022-08-11T08:25:42.360Z,27.40
2022-08-11T08:28:14.139Z,27.20
2022-08-11T08:30:51.679Z,27.30
2022-08-11T08:33:23.073Z,27.20
2022-08-11T08:36:11.652Z,27.40
2022-08-11T08:38:42.420Z,27.60
2022-08-11T08:41:13.057Z,27.70
2022-08-11T08:43:49.005Z,27.80
2022-08-11T08:46:25.234Z,27.80
2022-08-11T08:48:54.411Z,27.80
2022-08-11T08:52:01.516Z,27.80
2022-08-11T08:54:31.436Z,27.90
2022-08-11T08:57:03.063Z,28.10
2022-08-11T08:59:47.672Z,28.50
2022-08-11T09:02:43.433Z,28.70
2022-08-11T09:05:11.531Z,28.70
2022-08-11T09:07:41.211Z,28.50
2022-08-11T09:10:11.912Z,28.70
2022-08-11T09:12:43.397Z,29.10
2022-08-11T09:15:14.115Z,29.00
2022-08-11T09:17:48.001Z,29.00
2022-08-11T09:20:21.891Z,28.70
2022-08-11T09:24:06.609Z,28.90
2022-08-11T09:26:17.964Z,29.10
2022-08-11T09:28:48.998Z,29.10
2022-08-11T09:31:18.601Z,29.20
2022-08-11T09:33:55.249Z,29.10
2022-08-11T09:36:53.425Z,29.20
2022-08-11T09:39:39.403Z,29.40
2022-08-11T09:42:11.302Z,29.90
2022-08-11T09:44:48.766Z,30.20
2022-08-11T09:47:26.689Z,30.30
2022-08-11T09:50:00.433Z,30.20
2022-08-11T09:52:33.315Z,30.40
2022-08-11T09:55:03.404Z,30.50
2022-08-11T09:57:49.198Z,30.40
2022-08-11T10:00:18.194Z,30.20
2022-08-11T10:02:53.177Z,30.20
2022-08-11T10:05:41.714Z,30.20
2022-08-11T10:08:14.046Z,30.50
2022-08-11T10:10:43.104Z,30.70
2022-08-11T10:14:32.052Z,30.60
2022-08-11T10:16:16.396Z,30.50
2022-08-11T10:18:53.623Z,30.50
2022-08-11T10:21:31.071Z,30.50
2022-08-11T10:24:20.757Z,30.40
2022-08-11T10:26:58.866Z,30.60
2022-08-11T10:29:50.037Z,30.60
2022-08-11T10:32:52.273Z,30.70
2022-08-11T10:35:28.639Z,30.90
2022-08-11T10:38:15.965Z,31.00
2022-08-11T10:41:08.729Z,30.90
2022-08-11T10:44:02.472Z,30.90
2022-08-11T10:46:47.726Z,31.10
2022-08-11T10:49:21.442Z,31.30
2022-08-11T10:52:07.465Z,31.20
2022-08-11T10:54:55.875Z,30.90
2022-08-11T10:57:42.728Z,30.90
2022-08-11T11:00:31.081Z,30.90
2022-08-11T11:03:16.815Z,30.80
2022-08-11T11:06:27.362Z,31.00
2022-08-11T11:08:58.763Z,31.10
2022-08-11T11:11:51.993Z,31.30
2022-08-11T11:14:46.300Z,31.30
2022-08-11T11:17:45.310Z,31.30
2022-08-11T11:20:36.402Z,31.50
2022-08-11T11:23:11.178Z,31.60
2022-08-11T11:26:14.916Z,31.80
2022-08-11T11:29:08.192Z,32.00
2022-08-11T11:31:52.330Z,31.90
2022-08-11T11:34:52.832Z,32.40
2022-08-11T11:37:24.901Z,32.40
2022-08-11T11:39:55.274Z,32.70
2022-08-11T11:42:24.454Z,32.50
2022-08-11T11:44:56.137Z,32.70
2022-08-11T11:47:26.519Z,32.90
2022-08-11T11:49:55.757Z,32.20
2022-08-11T11:52:24.969Z,32.00
2022-08-11T11:54:57.664Z,32.10
2022-08-11T11:57:58.569Z,32.20
2022-08-11T12:01:03.392Z,32.60
2022-08-11T12:03:33.355Z,32.80
2022-08-11T12:06:02.404Z,32.20
2022-08-11T12:08:31.274Z,32.60
2022-08-11T12:11:19.750Z,33.00
2022-08-11T12:13:51.084Z,32.80
2022-08-11T12:16:35.602Z,33.00
2022-08-11T12:19:07.027Z,33.40
2022-08-11T12:21:38.000Z,34.00
2022-08-11T12:24:28.532Z,33.60
2022-08-11T12:27:17.757Z,33.50
2022-08-11T12:29:54.416Z,34.00
2022-08-11T12:32:33.232Z,34.00
2022-08-11T12:35:01.696Z,34.00
2022-08-11T12:37:33.961Z,33.90
2022-08-11T12:40:42.449Z,33.70
2022-08-11T12:43:38.415Z,34.20
2022-08-11T12:46:10.431Z,34.90
2022-08-11T12:49:03.885Z,34.50
2022-08-11T12:52:11.571Z,34.40
2022-08-11T12:55:00.448Z,33.80
2022-08-11T12:57:51.599Z,33.10
2022-08-11T13:00:38.379Z,33.20
2022-08-11T13:03:26.815Z,33.60
2022-08-11T13:05:58.795Z,33.70
2022-08-11T13:08:29.648Z,34.00
2022-08-11T13:11:17.970Z,34.10
2022-08-11T13:13:54.702Z,34.50
2022-08-11T13:16:29.141Z,34.80
2022-08-11T13:18:58.843Z,35.10
2022-08-11T13:21:29.192Z,34.90
2022-08-11T13:24:01.032Z,34.70
2022-08-11T13:26:47.237Z,34.60
2022-08-11T13:29:23.698Z,34.20
2022-08-11T13:31:53.542Z,34.40
2022-08-11T13:34:22.841Z,34.30
2022-08-11T13:36:55.278Z,34.70
2022-08-11T13:39:25.988Z,35.50
2022-08-11T13:41:56.878Z,35.40
2022-08-11T13:44:28.356Z,35.50
2022-08-11T13:47:01.511Z,35.10
2022-08-11T13:49:31.942Z,35.00
2022-08-11T13:52:02.267Z,35.20
2022-08-11T13:54:33.356Z,35.50
2022-08-11T13:57:09.140Z,35.00
2022-08-11T13:59:52.503Z,34.50
2022-08-11T14:02:29.093Z,34.70
2022-08-11T14:05:01.089Z,34.60
2022-08-11T14:07:35.964Z,34.60
2022-08-11T14:10:07.310Z,34.20
2022-08-11T14:12:55.700Z,34.70
2022-08-11T14:15:25.735Z,34.90
2022-08-11T14:17:57.259Z,34.90
2022-08-11T14:20:46.073Z,35.30
2022-08-11T14:23:15.833Z,35.70
2022-08-11T14:26:04.965Z,35.60
2022-08-11T14:28:40.289Z,35.20
2022-08-11T14:31:13.749Z,35.40
2022-08-11T14:34:00.045Z,34.80
2022-08-11T14:36:33.074Z,34.80
2022-08-11T14:39:05.619Z,35.00
2022-08-11T14:42:10.220Z,35.20
2022-08-11T14:45:00.487Z,35.30
2022-08-11T14:47:31.802Z,34.90
2022-08-11T14:50:11.522Z,34.40
2022-08-11T14:52:45.920Z,34.70
2022-08-11T14:55:34.498Z,34.70
2022-08-11T14:58:03.972Z,34.60
2022-08-11T15:00:34.558Z,34.10
2022-08-11T15:03:14.105Z,34.50
2022-08-11T15:05:57.177Z,34.80
2022-08-11T15:08:49.256Z,34.70
2022-08-11T15:11:39.130Z,34.50
2022-08-11T15:14:09.290Z,34.80
2022-08-11T15:16:56.456Z,34.40
2022-08-11T15:19:41.047Z,34.50
2022-08-11T15:22:28.843Z,34.40
2022-08-11T15:24:59.355Z,34.70
2022-08-11T15:27:49.734Z,34.50
2022-08-11T15:30:35.820Z,34.20
2022-08-11T15:33:27.904Z,34.10
2022-08-11T15:36:15.186Z,34.10
2022-08-11T15:38:48.592Z,34.50
2022-08-11T15:41:37.180Z,34.50
2022-08-11T15:44:58.930Z,34.10
2022-08-11T15:47:24.229Z,34.30
2022-08-11T15:50:10.953Z,34.70
2022-08-11T15:52:49.381Z,34.40
2022-08-11T15:55:18.546Z,34.30
2022-08-11T15:58:08.619Z,34.10
2022-08-11T16:01:01.235Z,34.30
2022-08-11T16:04:07.324Z,34.60
2022-08-11T16:06:38.985Z,34.50
2022-08-11T16:09:18.109Z,34.10
2022-08-11T16:11:48.547Z,33.90
2022-08-11T16:14:37.108Z,33.90
2022-08-11T16:17:09.267Z,34.10
2022-08-11T16:19:38.496Z,33.90
2022-08-11T16:22:10.123Z,33.90
2022-08-11T16:27:04.891Z,33.80
2022-08-11T16:27:36.723Z,33.60
2022-08-11T16:30:06.978Z,33.40
2022-08-11T16:32:40.589Z,33.40
2022-08-11T16:35:30.109Z,33.20
2022-08-11T16:38:16.493Z,33.00
2022-08-11T16:40:45.925Z,32.90
2022-08-11T16:43:44.012Z,32.60
2022-08-11T16:46:34.072Z,32.50
2022-08-11T16:49:07.169Z,32.50
2022-08-11T16:51:35.754Z,32.30
2022-08-11T16:54:06.386Z,32.40
2022-08-11T16:56:38.530Z,32.20
2022-08-11T16:59:16.634Z,32.00
2022-08-11T17:01:50.050Z,31.80
2022-08-11T17:04:46.650Z,31.20
2022-08-11T17:07:40.383Z,30.90
2022-08-11T17:10:51.185Z,30.50
2022-08-11T17:13:29.228Z,30.40
2022-08-11T17:16:10.913Z,30.30
2022-08-11T17:18:44.939Z,30.30
2022-08-11T17:21:18.564Z,30.30
2022-08-11T17:23:50.624Z,30.20
2022-08-11T17:26:22.049Z,30.00
2022-08-11T17:28:53.846Z,29.90
2022-08-11T17:31:41.426Z,29.80
2022-08-11T17:34:27.877Z,29.80
2022-08-11T17:37:00.062Z,29.70
2022-08-11T17:39:32.208Z,29.60
2022-08-11T17:42:19.196Z,29.60
2022-08-11T17:45:06.964Z,29.50
2022-08-11T17:47:53.920Z,29.50
2022-08-11T17:50:23.289Z,29.50
2022-08-11T17:53:11.355Z,29.40
2022-08-11T17:55:58.850Z,29.30
2022-08-11T17:58:45.701Z,29.20
2022-08-11T18:01:15.601Z,29.10
2022-08-11T18:03:57.615Z,29.00
2022-08-11T18:06:34.193Z,28.90
2022-08-11T18:09:27.246Z,28.90
2022-08-11T18:12:15.903Z,28.80
2022-08-11T18:15:05.666Z,28.70
2022-08-11T18:17:51.908Z,28.60
2022-08-11T18:20:38.439Z,28.60
2022-08-11T18:23:45.997Z,28.50
2022-08-11T18:26:41.189Z,28.40
2022-08-11T18:29:28.877Z,28.20
2022-08-11T18:32:21.970Z,28.10
2022-08-11T18:35:14.314Z,28.00
2022-08-11T18:38:05.757Z,27.90
2022-08-11T18:40:54.260Z,27.80
2022-08-11T18:43:44.473Z,27.70
2022-08-11T18:46:32.970Z,27.50
2022-08-11T18:49:35.493Z,27.40
2022-08-11T18:52:35.969Z,27.30
2022-08-11T18:55:26.209Z,27.10
2022-08-11T18:58:14.795Z,26.90
2022-08-11T19:01:05.339Z,26.80
2022-08-11T19:03:52.538Z,26.70
2022-08-11T19:06:42.776Z,26.60
2022-08-11T19:09:32.634Z,26.50
2022-08-11T19:12:20.516Z,26.30
2022-08-11T19:15:11.668Z,26.20
2022-08-11T19:18:01.904Z,26.00
2022-08-11T19:20:51.668Z,25.90
2022-08-11T19:23:43.730Z,25.60
2022-08-11T19:26:30.743Z,25.40
2022-08-11T19:30:07.245Z,25.30
2022-08-11T19:32:25.754Z,25.20
2022-08-11T19:35:15.044Z,25.00
2022-08-11T19:38:05.466Z,24.90
2022-08-11T19:40:52.324Z,24.80
2022-08-11T19:43:39.719Z,24.70
2022-08-11T19:46:27.608Z,24.60
2022-08-11T19:49:15.887Z,24.40
2022-08-11T19:52:04.039Z,24.10
2022-08-11T19:54:53.003Z,23.90
2022-08-11T19:57:40.580Z,23.60
2022-08-11T20:00:29.970Z,23.40
2022-08-11T20:03:17.163Z,23.10
2022-08-11T20:06:04.671Z,22.90
2022-08-11T20:08:57.884Z,22.90
2022-08-11T20:11:47.181Z,22.90
2022-08-11T20:14:35.379Z,22.80
2022-08-11T20:17:25.662Z,22.60
2022-08-11T20:22:45.637Z,22.40
2022-08-11T20:25:34.425Z,22.40
2022-08-11T20:28:21.998Z,22.30
2022-08-11T20:31:09.270Z,22.30
2022-08-11T20:33:56.646Z,22.20
2022-08-11T20:36:43.410Z,22.30
2022-08-11T20:39:30.021Z,22.30
2022-08-11T20:42:18.358Z,22.40
2022-08-11T20:45:06.613Z,22.50
2022-08-11T20:47:58.985Z,22.50
2022-08-11T20:50:47.578Z,22.40
2022-08-11T20:53:35.658Z,22.40
2022-08-11T20:56:28.689Z,22.40
2022-08-11T20:59:21.752Z,22.20
2022-08-11T21:02:10.327Z,22.00
2022-08-11T21:04:57.725Z,22.00
2022-08-11T21:07:57.104Z,21.90
2022-08-11T21:10:51.234Z,21.90
2022-08-11T21:13:40.565Z,21.90
2022-08-11T21:16:30.887Z,21.90
2022-08-11T21:19:55.133Z,22.00
2022-08-11T21:22:33.589Z,22.10
2022-08-11T21:25:21.575Z,22.10
2022-08-11T21:28:10.093Z,22.10
2022-08-11T21:34:23.132Z,22.10
2022-08-11T21:37:11.476Z,22.20
2022-08-11T21:39:59.164Z,22.10
2022-08-11T21:42:46.493Z,22.10
2022-08-11T21:45:33.024Z,22.10
2022-08-11T21:48:20.465Z,22.00
2022-08-11T21:51:07.382Z,21.90
2022-08-11T21:53:54.449Z,21.70
2022-08-11T21:56:41.709Z,21.40
2022-08-11T21:59:29.793Z,21.20
2022-08-11T22:02:16.549Z,21.00
2022-08-11T22:05:04.460Z,20.80
2022-08-11T22:07:52.235Z,20.70
2022-08-11T22:10:41.911Z,20.60
2022-08-11T22:13:30.350Z,20.50
2022-08-11T22:16:17.432Z,20.40
2022-08-11T22:19:04.914Z,20.30
2022-08-11T22:22:01.810Z,20.20
2022-08-11T22:24:51.632Z,20.20
2022-08-11T22:27:38.388Z,20.20
2022-08-11T22:30:25.360Z,20.10
2022-08-11T22:33:11.596Z,20.10
2022-08-11T22:35:57.951Z,20.00
2022-08-11T22:38:44.252Z,19.90
2022-08-11T22:41:32.304Z,19.80
2022-08-11T22:44:18.578Z,19.70
2022-08-11T22:47:04.787Z,19.60
2022-08-11T22:49:57.036Z,19.50
2022-08-11T22:52:46.701Z,19.30
2022-08-11T22:55:34.335Z,19.30
2022-08-11T22:58:22.589Z,19.20
2022-08-11T23:01:09.400Z,19.10
2022-08-11T23:03:55.885Z,19.10
2022-08-11T23:06:42.134Z,19.10
2022-08-11T23:09:28.587Z,19.20
2022-08-11T23:12:15.154Z,19.10
2022-08-11T23:15:04.387Z,19.20
2022-08-11T23:17:52.300Z,19.20
2022-08-11T23:20:47.319Z,19.10
2022-08-11T23:23:43.386Z,19.10
2022-08-11T23:26:30.158Z,19.10
2022-08-11T23:29:20.332Z,18.90
2022-08-11T23:32:11.642Z,18.80
2022-08-11T23:35:37.033Z,18.80
2022-08-11T23:38:05.238Z,18.80
2022-08-11T23:40:51.243Z,18.60
2022-08-11T23:43:40.292Z,18.50
2022-08-11T23:46:26.239Z,18.50
2022-08-11T23:49:16.063Z,18.50
2022-08-11T23:52:04.213Z,18.50
2022-08-11T23:54:50.315Z,18.40
2022-08-11T23:57:37.207Z,18.40
